Time;durP1;ratioP1;P1;durP2;ratioP2;P2;SDS_P1;SDS_P2;PMS_P1;PMS_P2;Temp;Humidity;BMP_temperature;BMP_pressure;BME280_temperature;BME280_humidity;BME280_pressure;Samples;Min_cycle;Max_cycle;Signal;HPM_P1;HPM_P2
2022/08/05 00:01:32;;;;;;;3.42;3.00;;;28.30;31.50;;;30.86;24.96;97199.72;5086785;28;20054;-50
2022/08/05 00:04:03;;;;;;;5.20;2.92;;;28.30;31.20;;;30.82;25.11;97209.69;5088963;28;20051;-53
2022/08/05 00:06:35;;;;;;;3.60;2.67;;;28.20;31.40;;;30.78;25.06;97200.41;5088093;28;20044;-52
2022/08/05 00:09:04;;;;;;;3.10;2.80;;;28.20;31.20;;;30.75;25.07;97206.53;5088920;28;20237;-51
2022/08/05 00:11:39;;;;;;;3.25;2.95;;;28.20;31.20;;;30.74;23.99;97210.38;5090580;28;20052;-49
2022/08/05 00:14:23;;;;;;;3.10;2.80;;;28.20;29.80;;;30.73;23.69;97211.50;5090347;28;20261;-50
2022/08/05 00:16:56;;;;;;;4.22;2.58;;;28.20;29.40;;;30.73;23.91;97209.59;5089404;28;20062;-50
2022/08/05 00:19:25;;;;;;;2.95;2.60;;;28.30;29.60;;;30.74;24.11;97222.19;5088611;28;20048;-55
2022/08/05 00:22:12;;;;;;;6.25;2.85;;;28.30;29.60;;;30.70;23.90;97223.91;5070765;28;20060;-50
2022/08/05 00:24:44;;;;;;;3.22;2.90;;;28.20;29.70;;;30.65;24.12;97224.03;5090300;28;20052;-52
2022/08/05 00:27:21;;;;;;;6.72;3.40;;;28.10;29.90;;;30.61;24.12;97229.31;5088936;28;20062;-50
2022/08/05 00:30:04;;;;;;;4.13;2.92;;;28.10;30.00;;;30.51;24.29;97225.91;5088880;28;20050;-52
2022/08/05 00:32:38;;;;;;;7.07;3.47;;;28.00;30.50;;;30.49;24.58;97242.66;5071142;28;20055;-49
2022/08/05 00:35:07;;;;;;;3.47;3.17;;;27.90;30.20;;;30.37;24.76;97245.09;5089903;28;20047;-53
2022/08/05 00:37:36;;;;;;;3.78;3.47;;;27.80;30.70;;;30.26;25.13;97252.63;5071947;28;20056;-54
2022/08/05 00:40:23;;;;;;;6.43;3.90;;;27.60;31.30;;;30.04;25.68;97261.47;5088982;28;20056;-49
2022/08/05 00:42:57;;;;;;;3.72;3.13;;;27.50;31.90;;;29.89;26.02;97269.91;5088450;28;20070;-49
2022/08/05 00:45:26;;;;;;;3.20;2.85;;;27.40;32.60;;;29.87;26.62;97269.41;5089381;28;20043;-52
2022/08/05 00:48:12;;;;;;;8.02;3.10;;;27.30;33.40;;;29.75;27.43;97280.81;5088704;28;20040;-51
2022/08/05 00:50:42;;;;;;;3.47;3.08;;;27.20;35.10;;;29.55;28.35;97277.19;5071550;28;20048;-51
2022/08/05 00:53:18;;;;;;;5.80;3.55;;;27.00;36.60;;;29.39;28.95;97282.06;5088906;28;20043;-51
2022/08/05 00:56:07;;;;;;;5.40;2.92;;;26.80;36.80;;;29.33;30.10;97287.88;5073446;28;20269;-49
2022/08/05 00:58:35;;;;;;;8.55;3.38;;;26.80;38.70;;;29.10;31.29;97281.22;5088507;28;20051;-51
2022/08/05 01:01:04;;;;;;;7.20;3.80;;;26.60;39.80;;;29.11;31.76;97289.16;5088836;28;20055;-53
2022/08/05 01:03:37;;;;;;;10.02;3.30;;;26.60;40.90;;;29.05;31.60;97282.13;5071897;28;20249;-52
2022/08/05 01:06:06;;;;;;;4.90;3.17;;;26.60;40.50;;;28.97;32.27;97283.56;5071247;28;20450;-51
2022/08/05 01:08:40;;;;;;;7.10;3.25;;;26.50;41.80;;;28.96;32.69;97286.59;5087505;28;20044;-51
2022/08/05 01:11:21;;;;;;;6.35;3.30;;;26.50;41.70;;;28.83;33.01;97299.06;5088662;28;20424;-50
2022/08/05 01:14:13;;;;;;;7.22;3.53;;;26.40;42.60;;;28.83;33.08;97296.31;5088103;28;20357;-48
2022/08/05 01:17:04;;;;;;;4.65;3.50;;;26.40;44.00;;;28.93;33.36;97303.63;5088499;28;20044;-52
2022/08/05 01:19:54;;;;;;;7.40;3.40;;;26.30;44.40;;;28.68;34.29;97300.00;5087761;28;20060;-52
2022/08/05 01:22:35;;;;;;;4.38;3.20;;;26.30;45.10;;;28.63;34.54;97298.13;5087330;28;20052;-50
2022/08/05 01:25:48;;;;;;;6.28;3.80;;;26.20;45.10;;;28.63;34.90;97314.56;5088179;28;20062;-53
2022/08/05 01:28:55;;;;;;;6.38;3.13;;;26.20;45.90;;;28.42;35.41;97322.06;5088278;28;20054;-53
2022/08/05 01:31:44;;;;;;;7.40;3.92;;;26.10;46.40;;;28.43;35.48;97326.44;5056231;28;20062;-51
2022/08/05 01:34:22;;;;;;;4.15;3.28;;;26.10;46.90;;;28.48;35.66;97317.38;5088428;28;20052;-50
2022/08/05 01:37:02;;;;;;;4.68;3.38;;;26.10;46.60;;;28.50;35.13;97319.81;5087664;28;20056;-50
2022/08/05 01:39:33;;;;;;;5.60;3.45;;;26.10;45.70;;;28.37;35.65;97318.56;5087018;28;20065;-51
2022/08/05 01:42:19;;;;;;;6.40;3.40;;;26.00;46.30;;;28.36;36.07;97330.59;5085933;28;20253;-55
2022/08/05 01:44:48;;;;;;;10.90;4.03;;;26.00;47.00;;;28.42;35.92;97326.69;5087418;28;20274;-52
2022/08/05 01:47:22;;;;;;;6.80;3.50;;;26.00;46.90;;;28.40;36.00;97331.66;5086820;28;20044;-53
2022/08/05 01:50:14;;;;;;;5.43;3.35;;;26.00;47.10;;;28.42;36.14;97323.97;5086778;28;20376;-53
2022/08/05 01:52:46;;;;;;;5.38;4.38;;;25.90;47.70;;;28.37;36.07;97321.28;5085932;28;20060;-52
2022/08/05 01:55:20;;;;;;;4.43;3.47;;;25.90;47.00;;;28.27;36.80;97314.78;5086775;28;20044;-53
2022/08/05 01:57:51;;;;;;;5.72;3.58;;;25.80;47.40;;;28.19;36.67;97315.38;5085643;28;20376;-49
2022/08/05 02:00:47;;;;;;;5.70;3.58;;;25.80;49.00;;;28.13;36.97;97316.50;5087111;28;20062;-53
2022/08/05 02:03:42;;;;;;;5.10;4.38;;;25.70;48.70;;;28.16;37.15;97309.66;5085739;28;20055;-52
2022/08/05 02:06:11;;;;;;;5.32;3.65;;;25.70;49.00;;;28.24;36.59;97314.50;5085910;28;20380;-53
2022/08/05 02:08:59;;;;;;;8.43;3.55;;;25.80;47.80;;;28.33;36.44;97329.25;5066821;28;20502;-50
2022/08/05 02:11:43;;;;;;;9.48;3.78;;;25.80;47.70;;;28.34;36.78;97339.06;5066722;28;20413;-51
2022/08/05 02:14:36;;;;;;;4.82;3.45;;;25.80;48.20;;;28.36;36.78;97342.34;5064746;28;20354;-55
2022/08/05 02:17:16;;;;;;;6.72;3.90;;;25.80;48.60;;;28.33;36.71;97339.38;5066144;28;20036;-49
2022/08/05 02:20:11;;;;;;;6.75;3.53;;;25.80;48.80;;;28.31;36.84;97308.75;5067088;28;20052;-49
2022/08/05 02:22:43;;;;;;;6.93;3.55;;;25.80;48.50;;;28.34;37.20;97321.84;5066446;28;20041;-53
2022/08/05 02:25:24;;;;;;;;;;;25.80;48.40;;;28.59;36.18;97318.94;5065650;28;20045;-51
2022/08/05 02:27:56;;;;;;;9.15;4.47;;;25.80;49.40;;;28.42;36.50;97324.81;5065507;28;20131;-52
2022/08/05 02:30:41;;;;;;;4.90;3.58;;;25.80;48.50;;;28.39;36.69;97322.63;5067243;28;20055;-49
2022/08/05 02:33:23;;;;;;;6.20;3.67;;;25.80;48.70;;;28.41;36.73;97341.50;5064904;28;20397;-54
2022/08/05 02:36:10;;;;;;;6.95;3.70;;;25.80;48.10;;;28.41;36.78;97333.31;5067123;28;20048;-50
2022/08/05 02:38:44;;;;;;;10.88;4.53;;;25.80;48.30;;;28.40;36.47;97335.22;5066218;28;20346;-52
2022/08/05 02:41:24;;;;;;;9.15;3.20;;;25.80;47.90;;;28.39;36.63;97330.03;5065579;28;20044;-49
2022/08/05 02:44:08;;;;;;;8.35;4.15;;;25.80;48.10;;;28.40;36.72;97353.53;5065500;28;20071;-50
2022/08/05 02:46:45;;;;;;;4.75;3.85;;;25.80;48.60;;;28.31;36.73;97356.09;5065513;28;20384;-50
2022/08/05 02:49:33;;;;;;;5.65;3.80;;;25.60;48.90;;;28.24;36.88;97355.56;5066487;28;20066;-51
2022/08/05 02:52:17;;;;;;;10.63;4.07;;;25.60;49.10;;;28.25;37.02;97362.69;5065240;28;20052;-54
2022/08/05 02:55:01;;;;;;;8.50;4.32;;;25.60;49.50;;;28.21;37.31;97365.16;5064913;28;20068;-53
2022/08/05 02:57:37;;;;;;;6.75;4.15;;;25.50;49.30;;;28.10;37.99;97376.47;5066921;28;20044;-52
2022/08/05 03:00:26;;;;;;;9.50;4.35;;;25.50;50.10;;;28.03;37.61;97376.75;5066017;28;20066;-53
2022/08/05 03:02:56;;;;;;;7.30;4.07;;;25.40;50.10;;;27.95;38.24;97371.88;5066762;28;20247;-51
2022/08/05 03:05:24;;;;;;;5.50;4.40;;;25.40;50.60;;;27.92;38.44;97367.78;5047817;28;20052;-53
2022/08/05 03:08:14;;;;;;;15.15;5.25;;;25.30;50.50;;;27.83;38.43;97364.75;5064788;28;20060;-50
2022/08/05 03:10:44;;;;;;;9.77;4.20;;;25.20;51.60;;;27.81;38.56;97374.34;5065966;28;20050;-53
2022/08/05 03:13:32;;;;;;;8.70;4.30;;;25.10;51.70;;;27.83;38.81;97364.75;5066882;28;20063;-52
2022/08/05 03:16:20;;;;;;;4.32;3.70;;;25.10;51.70;;;27.83;38.70;97356.56;5065625;28;20056;-49
2022/08/05 03:18:49;;;;;;;6.30;3.85;;;25.10;51.50;;;27.81;38.44;97352.47;5066041;28;20044;-52
2022/08/05 03:21:18;;;;;;;5.43;4.32;;;25.10;51.70;;;27.77;38.56;97348.66;5066569;28;20077;-48
2022/08/05 03:23:48;;;;;;;6.82;4.45;;;25.10;51.70;;;27.71;38.76;97352.53;5066636;28;20060;-50
2022/08/05 03:26:16;;;;;;;6.90;3.97;;;25.00;51.90;;;27.67;39.11;97355.00;5066173;28;20247;-49
2022/08/05 03:28:59;;;;;;;11.02;4.35;;;25.00;52.00;;;27.74;38.67;97354.69;5065628;28;20214;-52
2022/08/05 03:31:28;;;;;;;7.25;4.38;;;25.10;51.70;;;27.76;38.88;97366.16;5066167;28;20543;-50
2022/08/05 03:34:16;;;;;;;8.18;4.53;;;25.10;51.80;;;27.81;38.82;97357.94;5065679;28;20052;-50
2022/08/05 03:36:44;;;;;;;7.13;4.47;;;25.20;51.70;;;27.81;39.17;97342.34;5066113;28;20246;-52
2022/08/05 03:39:12;;;;;;;6.63;4.00;;;25.20;51.70;;;27.78;39.13;97355.75;5069204;28;20055;-52
2022/08/05 03:41:55;;;;;;;4.18;3.53;;;25.20;51.90;;;27.83;39.41;97339.34;5070193;28;20048;-51
2022/08/05 03:44:24;;;;;;;9.43;4.13;;;25.20;51.90;;;27.82;39.05;97344.00;5070112;28;20052;-54
2022/08/05 03:46:55;;;;;;;5.90;4.00;;;25.30;51.90;;;27.89;39.02;97352.72;5069719;28;20258;-50
2022/08/05 03:49:23;;;;;;;5.10;4.07;;;25.30;51.70;;;27.88;38.72;97345.63;5069721;28;20055;-51
2022/08/05 03:52:26;;;;;;;7.03;4.07;;;25.30;51.70;;;27.88;38.89;97336.63;5069605;28;20048;-52
2022/08/05 03:55:36;;;;;;;5.45;4.63;;;25.30;52.40;;;27.91;39.09;97343.44;5068926;28;20053;-50
2022/08/05 03:58:29;;;;;;;7.93;4.65;;;25.30;52.20;;;27.85;39.21;97332.47;5069308;28;20058;-54
2022/08/05 04:01:01;;;;;;;6.82;4.18;;;25.30;52.00;;;27.82;38.88;97334.94;5067434;28;20052;-52
2022/08/05 04:03:36;;;;;;;8.93;4.47;;;25.30;51.80;;;27.79;38.80;97330.88;5070510;28;20251;-52
2022/08/05 04:06:06;;;;;;;7.82;4.03;;;25.30;52.10;;;27.78;39.24;97342.09;5068483;28;20491;-54
2022/08/05 04:08:35;;;;;;;8.40;4.20;;;25.20;52.00;;;27.78;39.33;97342.94;5069796;28;20053;-51
2022/08/05 04:11:07;;;;;;;7.25;5.55;;;25.20;52.00;;;27.76;38.96;97349.75;5069772;28;20050;-52
2022/08/05 04:13:40;;;;;;;8.85;5.40;;;25.10;52.40;;;27.80;39.36;97375.44;5070705;28;20250;-49
2022/08/05 04:16:19;;;;;;;9.73;4.13;;;25.10;52.80;;;27.76;39.29;97391.59;5069506;28;20056;-51
2022/08/05 04:18:58;;;;;;;6.05;4.72;;;25.00;52.80;;;27.66;39.45;97410.75;5070154;28;20242;-48
2022/08/05 04:21:28;;;;;;;10.77;4.30;;;24.80;53.80;;;27.58;39.59;97422.28;5067307;28;20056;-48
2022/08/05 04:24:16;;;;;;;8.75;5.07;;;24.80;53.60;;;27.46;40.40;97434.31;5069979;28;20048;-51
2022/08/05 04:26:49;;;;;;;;;;;24.70;54.30;;;27.56;39.36;97441.69;5069836;28;20475;-50
2022/08/05 04:29:17;;;;;;;8.68;4.03;;;24.60;55.00;;;27.35;40.11;97449.09;5070189;28;19931;-47
2022/08/05 04:31:46;;;;;;;8.90;4.43;;;24.50;54.70;;;27.28;40.33;97448.56;5069776;28;20044;-48
2022/08/05 04:34:15;;;;;;;6.13;4.97;;;24.50;54.50;;;27.25;40.72;97452.63;5069350;28;20246;-48
2022/08/05 04:36:46;;;;;;;7.63;4.60;;;24.60;54.30;;;27.25;40.75;97460.03;5069865;28;20058;-51
2022/08/05 04:39:20;;;;;;;8.57;5.25;;;24.60;54.20;;;27.21;40.77;97476.13;5067621;28;20092;-48
2022/08/05 04:41:48;;;;;;;6.60;4.47;;;24.60;54.80;;;27.19;40.55;97494.69;5069142;28;20051;-47
2022/08/05 04:44:18;;;;;;;8.90;5.57;;;24.50;55.10;;;27.15;40.68;97506.44;5069301;28;20048;-53
2022/08/05 04:46:58;;;;;;;9.13;5.97;;;24.50;55.90;;;27.15;41.15;97495.53;5069561;28;20058;-49
2022/08/05 04:49:27;;;;;;;6.15;5.38;;;24.40;55.10;;;27.10;40.79;97502.63;5067516;28;20251;-51
2022/08/05 04:52:15;;;;;;;6.13;4.88;;;24.50;55.10;;;27.14;40.87;97516.53;5068387;28;20060;-49
2022/08/05 04:54:45;;;;;;;9.35;4.68;;;24.40;54.90;;;27.17;40.93;97528.84;5068070;28;20062;-52
2022/08/05 04:57:13;;;;;;;7.47;5.40;;;24.50;54.90;;;27.23;41.00;97544.16;5068808;28;20060;-49
2022/08/05 04:59:40;;;;;;;8.00;5.10;;;24.70;54.60;;;27.30;40.92;97559.22;5068651;28;20052;-48
2022/08/05 05:02:14;;;;;;;8.77;4.78;;;24.80;54.40;;;27.39;40.69;97569.63;5069077;28;20052;-53
2022/08/05 05:05:03;;;;;;;7.40;5.50;;;24.80;54.60;;;27.41;41.19;97581.09;5069632;28;20049;-52
2022/08/05 05:07:51;;;;;;;6.80;4.50;;;24.80;54.90;;;27.49;40.93;97591.47;5069900;28;20342;-52
2022/08/05 05:10:28;;;;;;;6.90;4.88;;;24.90;54.70;;;27.58;41.18;97599.97;5069205;28;20046;-48
2022/08/05 05:12:57;;;;;;;13.45;5.78;;;25.10;54.40;;;27.62;40.78;97592.88;5069187;28;20052;-53
2022/08/05 05:15:25;;;;;;;7.50;4.45;;;25.10;54.40;;;27.65;41.19;97598.63;5067907;28;20078;-50
2022/08/05 05:18:15;;;;;;;9.20;4.57;;;25.20;54.20;;;27.76;40.71;97588.50;5068960;28;20075;-48
2022/08/05 05:21:02;;;;;;;7.32;5.10;;;25.30;54.00;;;27.82;40.73;97590.16;5068441;28;20048;-50
2022/08/05 05:23:30;;;;;;;6.00;5.45;;;25.30;54.40;;;27.80;40.78;97595.06;5067662;28;20052;-51
2022/08/05 05:26:19;;;;;;;10.00;5.53;;;25.30;54.10;;;27.77;41.18;97594.78;5068793;28;20072;-49
2022/08/05 05:28:59;;;;;;;5.72;5.20;;;25.40;54.50;;;27.62;42.12;97598.34;5068787;28;20040;-51
2022/08/05 05:31:29;;;;;;;6.70;5.20;;;25.20;56.30;;;27.53;42.54;97597.22;5068126;28;20257;-53
2022/08/05 05:33:58;;;;;;;7.15;5.30;;;25.10;56.30;;;27.58;42.50;97605.44;5067583;28;20087;-50
2022/08/05 05:36:30;;;;;;;6.05;4.82;;;25.10;56.20;;;27.54;42.14;97607.91;5068866;28;20052;-50
2022/08/05 05:38:58;;;;;;;8.15;5.55;;;25.00;56.20;;;27.47;42.57;97612.81;5067224;28;20339;-49
2022/08/05 05:41:26;;;;;;;6.07;5.38;;;25.00;56.70;;;27.37;42.30;97610.88;5067855;28;20052;-50
2022/08/05 05:44:08;;;;;;;6.57;5.25;;;24.90;56.90;;;27.42;42.25;97619.09;5067420;28;20056;-47
2022/08/05 05:46:56;;;;;;;6.90;5.18;;;24.90;56.50;;;27.49;42.54;97616.09;5067287;28;20044;-52
2022/08/05 05:49:25;;;;;;;7.00;5.40;;;24.90;57.20;;;27.26;42.76;97618.25;5086263;28;20257;-53
2022/08/05 05:51:54;;;;;;;8.75;5.60;;;24.80;57.10;;;27.23;43.06;97628.88;5085020;28;20051;-51
2022/08/05 05:54:21;;;;;;;7.40;4.88;;;24.80;57.30;;;27.35;43.03;97623.19;5088090;28;20052;-51
2022/08/05 05:57:09;;;;;;;7.03;5.38;;;24.90;56.80;;;27.29;42.80;97627.81;5086253;28;20253;-50
2022/08/05 05:59:46;;;;;;;6.68;5.32;;;24.90;57.10;;;27.39;42.69;97624.28;5087408;28;20358;-54
2022/08/05 06:02:16;;;;;;;7.97;5.38;;;25.00;57.00;;;27.47;42.62;97624.59;5086686;28;20048;-55
2022/08/05 06:04:59;;;;;;;6.63;5.65;;;25.10;56.60;;;27.59;42.38;97618.84;5087915;28;20047;-49
2022/08/05 06:07:29;;;;;;;6.15;5.15;;;25.20;56.40;;;27.66;42.56;97615.84;5087424;28;20241;-52
2022/08/05 06:10:09;;;;;;;6.10;4.60;;;25.30;56.00;;;27.70;42.70;97608.72;5083746;28;20052;-49
2022/08/05 06:12:38;;;;;;;7.07;4.63;;;25.40;56.00;;;27.86;42.14;97591.25;5087088;28;20329;-49
2022/08/05 06:15:09;;;;;;;8.30;5.03;;;25.60;55.30;;;28.03;41.63;97584.66;5086885;28;20056;-54
2022/08/05 06:17:50;;;;;;;6.90;4.93;;;25.70;54.80;;;28.13;41.36;97581.09;5086137;28;20054;-53
2022/08/05 06:20:21;;;;;;;6.82;5.28;;;25.80;53.80;;;28.07;41.58;97585.75;5086248;28;20434;-50
2022/08/05 06:22:49;;;;;;;6.93;4.13;;;25.70;54.20;;;28.11;41.48;97586.03;5085987;28;20056;-53
2022/08/05 06:25:17;;;;;;;7.80;4.72;;;25.70;54.00;;;28.19;40.93;97594.50;5087939;28;20052;-51
2022/08/05 06:28:05;;;;;;;11.52;5.20;;;25.80;53.70;;;28.32;40.51;97603.22;5067551;28;20056;-52
2022/08/05 06:30:47;;;;;;;7.32;4.57;;;25.90;53.20;;;28.43;40.53;97605.66;5066781;28;20048;-53
2022/08/05 06:33:15;;;;;;;8.13;4.05;;;26.10;53.20;;;28.48;40.20;97613.88;5066198;28;20052;-50
2022/08/05 06:35:46;;;;;;;6.10;4.30;;;26.10;52.70;;;28.54;40.15;97608.41;5067541;28;20254;-54
2022/08/05 06:38:34;;;;;;;6.93;4.35;;;26.20;52.50;;;28.68;40.00;97620.41;5065365;28;20059;-52
2022/08/05 06:41:04;;;;;;;5.00;4.50;;;26.30;52.20;;;28.75;39.65;97626.41;5067041;28;20052;-51
2022/08/05 06:43:36;;;;;;;5.60;3.83;;;26.40;51.70;;;28.75;39.99;97623.69;5066832;28;20055;-48
2022/08/05 06:46:24;;;;;;;5.57;4.18;;;26.40;52.10;;;28.90;39.55;97619.22;5067969;28;20056;-53
2022/08/05 06:48:58;;;;;;;;;;;26.50;51.30;;;29.13;39.17;97618.59;5064307;28;20056;-52
2022/08/05 06:51:31;;;;;;;6.40;4.93;;;26.50;51.30;;;28.95;39.44;97624.69;5065424;28;19924;-51
2022/08/05 06:54:01;;;;;;;4.97;4.47;;;26.40;51.50;;;28.92;39.02;97627.97;5066560;28;20423;-51
2022/08/05 06:56:31;;;;;;;8.00;4.18;;;26.50;51.10;;;28.89;39.59;97628.53;5067157;28;20063;-49
2022/08/05 06:59:05;;;;;;;6.00;4.15;;;26.50;51.20;;;28.90;39.21;97631.00;5066650;28;20149;-52
2022/08/05 07:01:36;;;;;;;5.80;3.97;;;26.50;50.90;;;28.92;38.75;97637.00;5065379;28;20078;-54
2022/08/05 07:04:09;;;;;;;8.80;4.43;;;26.50;50.50;;;28.95;38.67;97639.22;5066725;28;20355;-50
2022/08/05 07:06:41;;;;;;;4.85;3.65;;;26.60;50.40;;;28.98;38.54;97632.34;5067149;28;20051;-51
2022/08/05 07:09:08;;;;;;;3.92;2.75;;;26.60;49.90;;;28.93;37.78;97640.59;5066090;28;20055;-48
2022/08/05 07:11:36;;;;;;;4.43;3.55;;;26.60;48.90;;;28.91;36.67;97648.28;5067218;28;20063;-49
2022/08/05 07:16:59;;;;;;;7.93;3.60;;;26.60;48.10;;;29.10;36.74;97665.72;5068402;28;20052;-53
2022/08/05 07:19:52;;;;;;;4.60;3.40;;;26.70;47.10;;;28.98;36.18;97670.69;5068483;28;20442;-50
2022/08/05 07:22:41;;;;;;;5.95;3.72;;;26.60;46.60;;;29.00;36.72;97668.50;5069229;28;20070;-51
2022/08/05 07:25:09;;;;;;;7.05;4.22;;;26.60;47.20;;;28.93;36.69;97668.81;5069260;28;20052;-52
2022/08/05 07:27:57;;;;;;;19.30;5.65;;;26.50;47.20;;;28.89;36.67;97667.72;5070651;28;20056;-48
2022/08/05 07:30:36;;;;;;;4.63;3.22;;;26.50;47.90;;;28.82;36.99;97664.47;5070268;28;20050;-52
2022/08/05 07:33:09;;;;;;;6.63;3.85;;;26.40;48.40;;;28.88;37.23;97678.97;5070589;28;20045;-49
2022/08/05 07:35:47;;;;;;;3.17;2.88;;;26.40;48.60;;;28.80;37.07;97683.91;5070116;28;20082;-47
2022/08/05 07:38:36;;;;;;;4.65;3.00;;;26.30;48.00;;;28.79;37.08;97687.75;5068384;28;20060;-47
2022/08/05 07:41:21;;;;;;;4.93;3.25;;;26.30;48.20;;;28.75;37.36;97678.47;5069429;28;20371;-50
2022/08/05 07:44:09;;;;;;;5.97;3.28;;;26.30;48.30;;;28.71;37.07;97684.75;5067805;28;20056;-48
2022/08/05 07:46:47;;;;;;;4.03;3.55;;;26.20;49.00;;;28.74;37.11;97682.28;5068602;28;20265;-50
2022/08/05 07:49:18;;;;;;;4.20;3.83;;;26.20;48.70;;;28.73;37.89;97686.13;5068800;28;20266;-47
2022/08/05 07:51:46;;;;;;;3.50;3.20;;;26.20;49.40;;;28.75;38.10;97686.69;5069229;28;20246;-50
2022/08/05 07:54:27;;;;;;;6.82;3.13;;;26.30;49.20;;;28.73;37.27;97686.13;5069799;28;20053;-48
2022/08/05 07:57:01;;;;;;;3.70;3.05;;;26.30;48.20;;;28.78;37.31;97686.09;5067875;28;20056;-52
2022/08/05 07:59:50;;;;;;;3.30;3.00;;;26.40;47.90;;;28.82;36.61;97687.19;5080196;28;20060;-51
2022/08/05 08:02:24;;;;;;;5.43;3.20;;;26.40;47.60;;;28.80;36.72;97680.34;5096945;28;20047;-50
2022/08/05 08:04:58;;;;;;;4.18;3.05;;;26.40;47.90;;;28.79;37.00;97679.53;5097767;28;20038;-49
2022/08/05 08:07:27;;;;;;;3.13;2.83;;;26.40;47.90;;;28.80;36.54;97677.63;5097875;28;20051;-48
2022/08/05 08:10:06;;;;;;;3.42;3.13;;;26.40;47.40;;;28.83;36.34;97671.59;5092395;28;20036;-51
2022/08/05 08:12:35;;;;;;;3.85;2.97;;;26.40;46.70;;;28.73;36.24;97666.97;5092902;28;20226;-49
2022/08/05 08:15:16;;;;;;;4.32;3.13;;;26.40;47.20;;;28.69;36.66;97665.84;5091135;28;20310;-50
2022/08/05 08:18:05;;;;;;;4.03;3.13;;;26.30;47.40;;;28.82;36.91;97668.00;5095180;28;20046;-49
2022/08/05 08:20:41;;;;;;;2.83;2.55;;;26.50;46.80;;;28.83;35.94;97661.44;5108847;28;20050;-53
2022/08/05 08:23:12;;;;;;;3.80;2.80;;;26.50;46.30;;;28.96;36.25;97654.53;5108569;28;20338;-49
2022/08/05 08:26:00;;;;;;;3.45;3.15;;;26.60;45.90;;;29.04;35.54;97662.19;5109618;28;20073;-49
2022/08/05 08:28:32;;;;;;;2.80;2.60;;;26.70;45.30;;;29.05;35.48;97661.06;5108934;28;20039;-54
2022/08/05 08:31:05;;;;;;;3.20;2.90;;;26.80;44.80;;;29.13;35.30;97653.41;5108516;28;20047;-50
2022/08/05 08:33:34;;;;;;;3.20;2.60;;;26.90;44.80;;;29.08;35.27;97637.78;5110030;28;20054;-51
2022/08/05 08:36:06;;;;;;;3.10;2.80;;;26.90;44.40;;;29.05;35.12;97633.66;5108815;28;20051;-48
2022/08/05 08:38:54;;;;;;;3.47;2.33;;;26.90;44.10;;;29.15;34.83;97629.28;5108424;28;20062;-51
2022/08/05 08:41:26;;;;;;;2.83;2.53;;;26.90;43.60;;;29.11;34.97;97628.19;5108809;28;20061;-50
2022/08/05 08:44:21;;;;;;;5.80;3.63;;;26.90;43.80;;;29.15;34.88;97630.09;5108438;28;20070;-49
2022/08/05 08:47:09;;;;;;;5.47;2.63;;;27.00;44.30;;;29.19;34.74;97625.69;5108405;28;20078;-48
2022/08/05 08:50:01;;;;;;;2.83;2.60;;;27.00;44.20;;;29.21;34.11;97614.44;5108156;28;20078;-51
2022/08/05 08:52:59;;;;;;;4.82;2.85;;;27.00;43.80;;;29.34;33.75;97624.78;5108493;28;20051;-49
2022/08/05 08:55:28;;;;;;;9.68;3.45;;;27.10;42.80;;;29.33;33.65;97611.34;5108414;28;20085;-50
2022/08/05 08:58:16;;;;;;;4.63;2.88;;;27.10;42.90;;;29.41;33.79;97610.75;5108134;28;20056;-47
2022/08/05 09:00:45;;;;;;;2.95;2.58;;;27.20;42.30;;;29.50;34.05;97605.50;5105091;28;20427;-49
2022/08/05 09:03:15;;;;;;;4.38;2.90;;;27.30;43.20;;;29.54;34.29;97601.06;5088130;28;20273;-50
2022/08/05 09:05:48;;;;;;;3.83;2.97;;;27.40;43.40;;;29.63;33.37;97596.63;5089049;28;20346;-50
2022/08/05 09:08:36;;;;;;;2.60;2.40;;;27.40;42.30;;;29.65;32.93;97599.88;5086940;28;20048;-48
2022/08/05 09:11:07;;;;;;;3.30;3.00;;;27.30;41.90;;;29.66;33.13;97601.50;5087061;28;20040;-49
2022/08/05 09:13:42;;;;;;;5.60;3.10;;;27.40;41.80;;;29.74;33.19;97597.38;5088626;28;20036;-48
2022/08/05 09:16:30;;;;;;;8.10;3.63;;;27.50;41.90;;;29.82;33.00;97583.06;5087770;28;20056;-52
2022/08/05 09:18:58;;;;;;;3.45;3.15;;;27.60;41.90;;;29.85;33.15;97576.97;5087381;28;20052;-53
2022/08/05 09:21:27;;;;;;;4.03;2.67;;;27.60;41.80;;;29.90;33.07;97585.16;5086217;28;20054;-50
2022/08/05 09:24:15;;;;;;;3.35;3.05;;;27.70;41.80;;;29.96;32.88;97586.75;5088769;28;20350;-50
2022/08/05 09:26:50;;;;;;;2.92;2.60;;;27.80;41.60;;;30.03;32.78;97584.50;5087642;28;20081;-48
2022/08/05 09:29:18;;;;;;;3.35;2.85;;;27.80;40.80;;;30.06;32.50;97583.09;5087875;28;20064;-51
2022/08/05 09:32:07;;;;;;;4.47;3.60;;;27.80;41.10;;;30.14;32.77;97571.47;5086885;28;20058;-49
2022/08/05 09:34:57;;;;;;;3.25;2.90;;;27.80;40.30;;;30.20;32.30;97567.56;5086799;28;20317;-50
2022/08/05 09:37:27;;;;;;;4.05;3.15;;;27.90;40.80;;;30.21;32.26;97560.97;5087040;28;20062;-47
2022/08/05 09:40:41;;;;;;;6.28;3.15;;;27.90;40.50;;;30.33;32.04;97568.03;5087958;28;20043;-52
2022/08/05 09:43:45;;;;;;;3.33;3.03;;;28.00;40.70;;;30.36;32.02;97559.19;5086331;28;20454;-53
2022/08/05 09:46:33;;;;;;;4.22;3.03;;;28.00;40.30;;;30.42;32.13;97563.53;5087319;28;20431;-50
2022/08/05 09:49:05;;;;;;;3.30;3.00;;;28.10;40.40;;;30.42;31.57;97564.34;5086561;28;20056;-52
2022/08/05 09:51:47;;;;;;;2.90;2.60;;;28.10;39.90;;;30.45;31.31;97562.13;5087385;28;20234;-49
2022/08/05 09:54:28;;;;;;;4.40;2.83;;;28.10;39.50;;;30.43;30.87;97565.97;5088519;28;20059;-51
2022/08/05 09:56:56;;;;;;;3.28;2.67;;;28.10;39.00;;;30.46;31.07;97563.75;5087728;28;20040;-49
2022/08/05 09:59:29;;;;;;;3.55;3.17;;;28.10;39.40;;;30.50;31.07;97571.13;5087513;28;20273;-49
2022/08/05 10:02:04;;;;;;;4.38;3.10;;;28.20;39.30;;;30.55;31.11;97568.31;5087260;28;20054;-51
2022/08/05 10:04:38;;;;;;;3.17;2.70;;;28.30;39.20;;;30.50;31.00;97581.31;5088829;28;20052;-51
2022/08/05 10:07:07;;;;;;;3.08;2.85;;;28.30;38.70;;;30.61;30.77;97574.56;5086612;28;20051;-51
2022/08/05 10:09:55;;;;;;;3.40;3.15;;;28.30;38.90;;;30.68;31.21;97575.03;5086553;28;20062;-54
2022/08/05 10:12:48;;;;;;;4.30;2.90;;;28.40;39.00;;;30.74;31.41;97573.84;5086633;28;20133;-51
2022/08/05 10:15:36;;;;;;;17.80;4.53;;;28.40;39.20;;;30.70;30.86;97575.56;5087580;28;20055;-49
2022/08/05 10:18:25;;;;;;;4.88;3.17;;;28.50;38.60;;;30.70;30.62;97578.31;5084717;28;20055;-50
2022/08/05 10:21:03;;;;;;;4.13;3.67;;;28.50;38.10;;;30.78;30.67;97576.84;5087292;28;20052;-47
2022/08/05 10:23:43;;;;;;;2.97;2.63;;;28.60;38.30;;;30.87;30.56;97566.00;5088643;28;20058;-50
2022/08/05 10:26:27;;;;;;;3.13;2.90;;;28.60;38.20;;;30.97;30.38;97569.47;5086513;28;20044;-54
2022/08/05 10:29:15;;;;;;;3.75;2.72;;;28.70;38.40;;;31.10;30.91;97572.59;5084898;28;20047;-54
2022/08/05 10:31:51;;;;;;;3.00;2.70;;;28.80;38.50;;;31.09;30.10;97563.53;5087436;28;20047;-51
2022/08/05 10:34:38;;;;;;;3.75;3.30;;;28.90;37.80;;;31.17;30.16;97562.88;5087936;28;20044;-51
2022/08/05 10:37:09;;;;;;;3.75;2.70;;;29.00;38.20;;;31.18;29.94;97563.69;5085229;28;20070;-52
2022/08/05 10:39:46;;;;;;;3.20;2.88;;;29.00;37.90;;;31.26;30.08;97551.19;5085372;28;20391;-51
2022/08/05 10:42:37;;;;;;;3.58;2.50;;;29.00;38.10;;;31.35;30.05;97555.72;5086034;28;20245;-50
2022/08/05 10:45:14;;;;;;;3.97;3.38;;;29.10;38.10;;;31.43;29.65;97556.97;5086868;28;20048;-51
2022/08/05 10:48:48;;;;;;;2.90;2.60;;;29.10;37.60;;;31.47;29.70;97557.22;5085031;28;20262;-51
2022/08/05 10:51:45;;;;;;;3.17;2.83;;;29.20;37.10;;;31.54;30.13;97554.91;5030479;28;20064;-52
2022/08/05 10:55:02;;;;;;;4.07;3.45;;;29.20;38.00;;;31.65;29.80;97555.56;5086350;28;20298;-51
2022/08/05 10:57:32;;;;;;;3.05;2.65;;;29.40;37.30;;;31.70;29.35;97545.28;5084636;28;20043;-50
2022/08/05 11:00:10;;;;;;;3.35;2.55;;;29.50;37.20;;;31.78;29.58;97552.03;5085831;28;20066;-49
2022/08/05 11:03:06;;;;;;;2.92;2.65;;;29.60;36.70;;;31.79;29.03;97557.25;5087421;28;20056;-50
2022/08/05 11:06:11;;;;;;;3.75;2.63;;;29.70;35.80;;;31.83;29.39;97548.38;5086886;28;20043;-48
2022/08/05 11:09:15;;;;;;;4.07;3.05;;;29.70;35.40;;;31.97;29.08;97552.78;5085682;28;20334;-52
2022/08/05 11:11:52;;;;;;;5.57;3.15;;;29.80;35.30;;;32.13;28.79;97561.63;5064082;28;20056;-52